KHOB/HOB METAR and TAF weather

Enter ICAO airport designator
Station Type Date Time Source
KHOB METAR 2022/07/01 01:35 UTC NOAA

KHOB 010135Z AUTO 16009KT 10SM FEW110 32/07 A3000 RMK AO2


Station Type Date Time Source
KHOB Decoded METAR 2022/07/01 01:35 UTC NOAA

Hobbs / Lea County, NM, United States (KHOB) 32-41N 103-13W
Jun 30, 2022 - 09:35 PM EDT / 2022.07.01 0135 UTC
Wind: from the SSE (160 degrees) at 10 MPH (9 KT):0
Visibility: 10 mile(s):0
Sky conditions: mostly clear
Temperature: 89 F (32 C)
Dew Point: 44 F (7 C)
Relative Humidity: 21%
Pressure (altimeter): 30 in. Hg (1015 hPa)
ob: KHOB 010135Z AUTO 16009KT 10SM FEW110 32/07 A3000 RMK AO2
cycle: 1

Station Type Date Time Source
KHOB TAF 2022/06/30 18:42 UTC NOAA

TAF KHOB 301740Z 3018/0118 17008KT P6SM SCT080

Example: see airport list